AFR1528 LFPG-LPPR
Flight info
| Callsign | AFR1528 |
|---|---|
| Flight time | 1h 49m |
| Altitude | 36000 |
| Route | LGL UT176 TERPO UN872 ERIGA UZ218 FUJTI DCT 452036N0040002W DCT ATLEN DCT 432715N0055916W DCT INSID T326 ASPOR |
| Aircraft | A320/M-SDE3FGHIRWY/LB1 |
Departure
| Time | 2026-05-04 20:30 |
|---|---|
| Airport | Charles de Gaulle International Airport (LFPG) |
Arrival
| Time | 2026-05-04 22:20 |
|---|---|
| Airport | Francisco de Sá Carneiro Airport (LPPR) |
| Time | Latitude | Longitude | Altitude | Speed | Heading |
|---|---|---|---|---|---|
| 2026-05-04 19:48 | 49.00290 | 2.58407 | 330 ft | 0 kts | 86° |
| 2026-05-04 20:13 | 49.00290 | 2.58405 | 330 ft | 1 kts | 86° |
| 2026-05-04 20:13 | 49.00289 | 2.58383 | 330 ft | 2 kts | 86° |
| 2026-05-04 20:13 | 49.00288 | 2.58362 | 330 ft | 2 kts | 86° |
| 2026-05-04 20:14 | 49.00287 | 2.58339 | 330 ft | 2 kts | 86° |
| 2026-05-04 20:14 | 49.00286 | 2.58317 | 330 ft | 2 kts | 104° |
| 2026-05-04 20:14 | 49.00293 | 2.58298 | 330 ft | 2 kts | 146° |
| 2026-05-04 20:14 | 49.00303 | 2.58292 | 330 ft | 0 kts | 172° |
| 2026-05-04 20:15 | 49.00310 | 2.58292 | 330 ft | 0 kts | 175° |
| 2026-05-04 20:22 | 49.00299 | 2.58293 | 330 ft | 2 kts | 175° |
| 2026-05-04 20:22 | 49.00275 | 2.58296 | 330 ft | 4 kts | 175° |
| 2026-05-04 20:22 | 49.00241 | 2.58300 | 330 ft | 5 kts | 175° |
| 2026-05-04 20:22 | 49.00201 | 2.58305 | 330 ft | 0 kts | 175° |
| 2026-05-04 20:23 | 49.00191 | 2.58307 | 330 ft | 4 kts | 175° |
| 2026-05-04 20:24 | 49.00141 | 2.58311 | 329 ft | 9 kts | 182° |
| 2026-05-04 20:24 | 49.00087 | 2.58314 | 328 ft | 2 kts | 172° |
| 2026-05-04 20:24 | 49.00058 | 2.58319 | 328 ft | 6 kts | 180° |
| 2026-05-04 20:24 | 49.00013 | 2.58275 | 327 ft | 10 kts | 249° |
| 2026-05-04 20:25 | 49.00001 | 2.58155 | 327 ft | 12 kts | 265° |
| 2026-05-04 20:25 | 48.99995 | 2.58012 | 327 ft | 14 kts | 266° |
| 2026-05-04 20:25 | 48.99985 | 2.57852 | 327 ft | 15 kts | 264° |
| 2026-05-04 20:25 | 48.99975 | 2.57687 | 329 ft | 15 kts | 265° |
| 2026-05-04 20:26 | 48.99965 | 2.57518 | 329 ft | 16 kts | 265° |
| 2026-05-04 20:26 | 48.99957 | 2.57335 | 329 ft | 18 kts | 267° |
| 2026-05-04 20:26 | 48.99948 | 2.57137 | 329 ft | 19 kts | 265° |
| 2026-05-04 20:26 | 48.99937 | 2.56934 | 330 ft | 19 kts | 266° |
| 2026-05-04 20:27 | 48.99926 | 2.56729 | 330 ft | 20 kts | 265° |
| 2026-05-04 20:27 | 48.99916 | 2.56523 | 330 ft | 18 kts | 266° |
| 2026-05-04 20:27 | 48.99905 | 2.56326 | 330 ft | 18 kts | 265° |
| 2026-05-04 20:27 | 48.99894 | 2.56132 | 331 ft | 18 kts | 266° |
| 2026-05-04 20:28 | 48.99890 | 2.55945 | 331 ft | 17 kts | 281° |
| 2026-05-04 20:28 | 48.99889 | 2.55828 | 331 ft | 10 kts | 236° |
| 2026-05-04 20:28 | 48.99821 | 2.55801 | 330 ft | 11 kts | 179° |
| 2026-05-04 20:28 | 48.99738 | 2.55810 | 330 ft | 12 kts | 176° |
| 2026-05-04 20:29 | 48.99651 | 2.55821 | 330 ft | 13 kts | 175° |
| 2026-05-04 20:29 | 48.99598 | 2.55914 | 329 ft | 13 kts | 86° |
| 2026-05-04 20:29 | 48.99605 | 2.55972 | 329 ft | 0 kts | 81° |
| 2026-05-04 20:29 | 48.99606 | 2.55985 | 329 ft | 11 kts | 82° |
| 2026-05-04 20:30 | 48.99635 | 2.56493 | 327 ft | 84 kts | 86° |
| 2026-05-04 20:30 | 48.99701 | 2.57715 | 327 ft | 144 kts | 85° |
| 2026-05-04 20:30 | 48.99791 | 2.59435 | 581 ft | 171 kts | 87° |
| 2026-05-04 20:30 | 48.99856 | 2.61255 | 1184 ft | 173 kts | 88° |
| 2026-05-04 20:31 | 48.99948 | 2.63065 | 1845 ft | 174 kts | 86° |
| 2026-05-04 20:31 | 49.00057 | 2.64886 | 2490 ft | 175 kts | 85° |
| 2026-05-04 20:31 | 49.00163 | 2.66709 | 3133 ft | 176 kts | 86° |
| 2026-05-04 20:31 | 49.00264 | 2.68537 | 3789 ft | 177 kts | 87° |
| 2026-05-04 20:32 | 49.00357 | 2.70464 | 4231 ft | 191 kts | 86° |
| 2026-05-04 20:32 | 49.00474 | 2.72579 | 4643 ft | 208 kts | 86° |
| 2026-05-04 20:32 | 49.00595 | 2.74903 | 4954 ft | 232 kts | 86° |
| 2026-05-04 20:32 | 49.00713 | 2.77420 | 5442 ft | 248 kts | 86° |
| 2026-05-04 20:33 | 49.00697 | 2.80134 | 5944 ft | 265 kts | 94° |
| 2026-05-04 20:33 | 49.00454 | 2.82915 | 6799 ft | 268 kts | 99° |
| 2026-05-04 20:33 | 49.00114 | 2.85692 | 7657 ft | 269 kts | 101° |
| 2026-05-04 20:33 | 48.99773 | 2.88449 | 8483 ft | 271 kts | 101° |
| 2026-05-04 20:34 | 48.99412 | 2.91271 | 9240 ft | 273 kts | 101° |
| 2026-05-04 20:34 | 48.99048 | 2.94111 | 9828 ft | 278 kts | 102° |
| 2026-05-04 20:34 | 48.98647 | 2.96990 | 10565 ft | 282 kts | 110° |
| 2026-05-04 20:34 | 48.97634 | 2.99562 | 10952 ft | 298 kts | 133° |
| 2026-05-04 20:35 | 48.95888 | 3.01444 | 11267 ft | 318 kts | 155° |
| 2026-05-04 20:35 | 48.93679 | 3.02138 | 11559 ft | 337 kts | 180° |
| 2026-05-04 20:35 | 48.91341 | 3.01285 | 11851 ft | 356 kts | 207° |
| 2026-05-04 20:35 | 48.89450 | 2.98860 | 12431 ft | 364 kts | 234° |
| 2026-05-04 20:36 | 48.88412 | 2.95363 | 13106 ft | 367 kts | 256° |
| 2026-05-04 20:36 | 48.87881 | 2.91617 | 13731 ft | 369 kts | 257° |
| 2026-05-04 20:36 | 48.87352 | 2.87739 | 14364 ft | 372 kts | 257° |
| 2026-05-04 20:36 | 48.86816 | 2.83932 | 14982 ft | 374 kts | 257° |
| 2026-05-04 20:37 | 48.86255 | 2.80068 | 15586 ft | 376 kts | 256° |
| 2026-05-04 20:37 | 48.85682 | 2.76186 | 16146 ft | 378 kts | 256° |
| 2026-05-04 20:37 | 48.85099 | 2.72308 | 16755 ft | 380 kts | 256° |
| 2026-05-04 20:37 | 48.84501 | 2.68418 | 17324 ft | 382 kts | 256° |
| 2026-05-04 20:38 | 48.83892 | 2.64488 | 17821 ft | 384 kts | 256° |
| 2026-05-04 20:38 | 48.83277 | 2.60531 | 18376 ft | 386 kts | 256° |
| 2026-05-04 20:38 | 48.82664 | 2.56592 | 18886 ft | 387 kts | 256° |
| 2026-05-04 20:38 | 48.82040 | 2.52585 | 19381 ft | 390 kts | 256° |
| 2026-05-04 20:39 | 48.81417 | 2.48604 | 19864 ft | 393 kts | 255° |
| 2026-05-04 20:39 | 48.80787 | 2.44590 | 20354 ft | 395 kts | 255° |
| 2026-05-04 20:39 | 48.80151 | 2.40532 | 20833 ft | 396 kts | 255° |
| 2026-05-04 20:39 | 48.79504 | 2.36416 | 21297 ft | 398 kts | 255° |
| 2026-05-04 20:40 | 48.78857 | 2.32317 | 21765 ft | 401 kts | 255° |
| 2026-05-04 20:40 | 48.78211 | 2.28230 | 22228 ft | 402 kts | 254° |
| 2026-05-04 20:40 | 48.77559 | 2.24117 | 22679 ft | 404 kts | 254° |
| 2026-05-04 20:40 | 48.76898 | 2.19956 | 23105 ft | 407 kts | 254° |
| 2026-05-04 20:41 | 48.76233 | 2.15782 | 23521 ft | 409 kts | 254° |
| 2026-05-04 20:41 | 48.75569 | 2.11617 | 23937 ft | 411 kts | 254° |
| 2026-05-04 20:41 | 48.74892 | 2.07394 | 24346 ft | 413 kts | 254° |
| 2026-05-04 20:41 | 48.74216 | 2.03185 | 24721 ft | 415 kts | 254° |
| 2026-05-04 20:42 | 48.73523 | 1.98879 | 25090 ft | 417 kts | 254° |
| 2026-05-04 20:42 | 48.72833 | 1.94603 | 25455 ft | 419 kts | 254° |
| 2026-05-04 20:42 | 48.72141 | 1.90323 | 25807 ft | 422 kts | 254° |
| 2026-05-04 20:42 | 48.71440 | 1.85998 | 26128 ft | 424 kts | 253° |
| 2026-05-04 20:43 | 48.70735 | 1.81651 | 26465 ft | 426 kts | 253° |
| 2026-05-04 20:43 | 48.70020 | 1.77275 | 26771 ft | 428 kts | 253° |
| 2026-05-04 20:43 | 48.69306 | 1.72909 | 27091 ft | 430 kts | 253° |
| 2026-05-04 20:43 | 48.68586 | 1.68524 | 27397 ft | 431 kts | 253° |
| 2026-05-04 20:44 | 48.67856 | 1.64077 | 27705 ft | 433 kts | 253° |
| 2026-05-04 20:44 | 48.67130 | 1.59671 | 28001 ft | 435 kts | 253° |
| 2026-05-04 20:44 | 48.66396 | 1.55236 | 28271 ft | 436 kts | 253° |
| 2026-05-04 20:44 | 48.65651 | 1.50741 | 28531 ft | 438 kts | 253° |
| 2026-05-04 20:45 | 48.64910 | 1.46277 | 28804 ft | 439 kts | 253° |
| 2026-05-04 20:45 | 48.64164 | 1.41792 | 29069 ft | 440 kts | 253° |
| 2026-05-04 20:45 | 48.63415 | 1.37300 | 29412 ft | 439 kts | 252° |
| 2026-05-04 20:45 | 48.62672 | 1.32852 | 29798 ft | 437 kts | 252° |
| 2026-05-04 20:46 | 48.61931 | 1.28434 | 30175 ft | 435 kts | 251° |
| 2026-05-04 20:46 | 48.61181 | 1.23970 | 30529 ft | 433 kts | 251° |
| 2026-05-04 20:46 | 48.60448 | 1.19618 | 30874 ft | 432 kts | 251° |
| 2026-05-04 20:46 | 48.59701 | 1.15194 | 31194 ft | 431 kts | 251° |
| 2026-05-04 20:47 | 48.58961 | 1.10831 | 31472 ft | 430 kts | 251° |
| 2026-05-04 20:47 | 48.58210 | 1.06419 | 31738 ft | 430 kts | 251° |
| 2026-05-04 20:47 | 48.57469 | 1.02075 | 32017 ft | 429 kts | 251° |
| 2026-05-04 20:47 | 48.56728 | 0.97737 | 32285 ft | 428 kts | 251° |
| 2026-05-04 20:48 | 48.55976 | 0.93344 | 32546 ft | 427 kts | 251° |
| 2026-05-04 20:48 | 48.55236 | 0.89018 | 32790 ft | 427 kts | 251° |
| 2026-05-04 20:48 | 48.54487 | 0.84660 | 33051 ft | 426 kts | 251° |
| 2026-05-04 20:48 | 48.53752 | 0.80398 | 33290 ft | 425 kts | 251° |
| 2026-05-04 20:49 | 48.53005 | 0.76074 | 33507 ft | 425 kts | 251° |
| 2026-05-04 20:49 | 48.52260 | 0.71786 | 33724 ft | 425 kts | 251° |
| 2026-05-04 20:49 | 48.51501 | 0.67423 | 33969 ft | 424 kts | 251° |
| 2026-05-04 20:49 | 48.50758 | 0.63153 | 34189 ft | 424 kts | 251° |
| 2026-05-04 20:50 | 48.50011 | 0.58869 | 34393 ft | 424 kts | 251° |
| 2026-05-04 20:50 | 48.49262 | 0.54581 | 34586 ft | 422 kts | 251° |
| 2026-05-04 20:50 | 48.48509 | 0.50292 | 34746 ft | 423 kts | 251° |
| 2026-05-04 20:50 | 48.47741 | 0.45930 | 34896 ft | 424 kts | 251° |
| 2026-05-04 20:51 | 48.46980 | 0.41619 | 35001 ft | 425 kts | 251° |
| 2026-05-04 20:51 | 48.46217 | 0.37307 | 35103 ft | 426 kts | 251° |
| 2026-05-04 20:51 | 48.44675 | 0.28624 | 35304 ft | 428 kts | 250° |
| 2026-05-04 20:52 | 48.42548 | 0.20363 | 35453 ft | 421 kts | 234° |
| 2026-05-04 20:52 | 48.40976 | 0.16711 | 35555 ft | 420 kts | 232° |
| 2026-05-04 20:52 | 48.39296 | 0.13054 | 35577 ft | 422 kts | 231° |
| 2026-05-04 20:53 | 48.35665 | 0.06211 | 35420 ft | 419 kts | 225° |
| 2026-05-04 20:53 | 48.31789 | -0.00378 | 35257 ft | 419 kts | 225° |
| 2026-05-04 20:54 | 48.27962 | -0.06916 | 35096 ft | 418 kts | 225° |
| 2026-05-04 20:54 | 48.24120 | -0.13486 | 34932 ft | 418 kts | 225° |
| 2026-05-04 20:55 | 48.20257 | -0.19947 | 34909 ft | 419 kts | 223° |
| 2026-05-04 20:55 | 48.16088 | -0.26100 | 34922 ft | 419 kts | 220° |
| 2026-05-04 20:56 | 48.11887 | -0.32138 | 34913 ft | 419 kts | 220° |
| 2026-05-04 20:56 | 48.07692 | -0.38191 | 34917 ft | 420 kts | 221° |
| 2026-05-04 20:57 | 48.03520 | -0.44216 | 34918 ft | 421 kts | 221° |
| 2026-05-04 20:57 | 47.99301 | -0.50303 | 34916 ft | 422 kts | 221° |
| 2026-05-04 20:58 | 47.95065 | -0.56403 | 34927 ft | 422 kts | 221° |
| 2026-05-04 20:58 | 47.90841 | -0.62473 | 34919 ft | 422 kts | 220° |
| 2026-05-04 20:59 | 47.86599 | -0.68550 | 34929 ft | 421 kts | 220° |
| 2026-05-04 20:59 | 47.82359 | -0.74612 | 34926 ft | 422 kts | 220° |
| 2026-05-04 21:00 | 47.78086 | -0.80705 | 34921 ft | 424 kts | 220° |
| 2026-05-04 21:00 | 47.73816 | -0.86780 | 34924 ft | 424 kts | 220° |
| 2026-05-04 21:01 | 47.69533 | -0.92861 | 34931 ft | 424 kts | 220° |
| 2026-05-04 21:01 | 47.65242 | -0.98938 | 34910 ft | 425 kts | 220° |
| 2026-05-04 21:02 | 47.60974 | -1.04967 | 34922 ft | 425 kts | 220° |
| 2026-05-04 21:02 | 47.56683 | -1.11016 | 34923 ft | 425 kts | 220° |
| 2026-05-04 21:03 | 47.52393 | -1.17046 | 34914 ft | 424 kts | 220° |
| 2026-05-04 21:03 | 47.48110 | -1.23050 | 34943 ft | 425 kts | 220° |
| 2026-05-04 21:04 | 47.43828 | -1.29043 | 34917 ft | 426 kts | 220° |
| 2026-05-04 21:04 | 47.39507 | -1.35070 | 34931 ft | 426 kts | 220° |
| 2026-05-04 21:05 | 47.35222 | -1.41034 | 34931 ft | 426 kts | 221° |
| 2026-05-04 21:05 | 47.30891 | -1.47047 | 34931 ft | 427 kts | 221° |
| 2026-05-04 21:06 | 47.26584 | -1.53011 | 34947 ft | 427 kts | 221° |
| 2026-05-04 21:06 | 47.22224 | -1.59031 | 34928 ft | 429 kts | 221° |
| 2026-05-04 21:07 | 47.17887 | -1.65005 | 34928 ft | 430 kts | 220° |
| 2026-05-04 21:07 | 47.13513 | -1.71020 | 34939 ft | 430 kts | 220° |
| 2026-05-04 21:08 | 47.09117 | -1.77054 | 34941 ft | 430 kts | 220° |
| 2026-05-04 21:08 | 47.04775 | -1.82997 | 34924 ft | 430 kts | 220° |
| 2026-05-04 21:09 | 47.00370 | -1.89011 | 34931 ft | 432 kts | 220° |
| 2026-05-04 21:09 | 46.95996 | -1.94969 | 34935 ft | 431 kts | 221° |
| 2026-05-04 21:10 | 46.91591 | -2.00955 | 34939 ft | 431 kts | 221° |
| 2026-05-04 21:10 | 46.87188 | -2.06924 | 34942 ft | 432 kts | 221° |
| 2026-05-04 21:11 | 46.82763 | -2.12905 | 35070 ft | 435 kts | 221° |
| 2026-05-04 21:11 | 46.80533 | -2.15912 | 35193 ft | 435 kts | 221° |
| 2026-05-04 21:11 | 46.78294 | -2.18928 | 35306 ft | 436 kts | 221° |
| 2026-05-04 21:12 | 46.76083 | -2.21907 | 35418 ft | 437 kts | 221° |
| 2026-05-04 21:12 | 46.73843 | -2.24930 | 35532 ft | 437 kts | 221° |
| 2026-05-04 21:12 | 46.71612 | -2.27938 | 35634 ft | 437 kts | 221° |
| 2026-05-04 21:12 | 46.69405 | -2.30916 | 35718 ft | 438 kts | 221° |
| 2026-05-04 21:13 | 46.64921 | -2.36949 | 35876 ft | 440 kts | 221° |
| 2026-05-04 21:13 | 46.60437 | -2.42968 | 35950 ft | 442 kts | 221° |
| 2026-05-04 21:14 | 46.55897 | -2.49045 | 35958 ft | 442 kts | 221° |
| 2026-05-04 21:14 | 46.51392 | -2.55060 | 35958 ft | 443 kts | 221° |
| 2026-05-04 21:15 | 46.46858 | -2.61098 | 35962 ft | 443 kts | 221° |
| 2026-05-04 21:15 | 46.42300 | -2.67154 | 35962 ft | 443 kts | 220° |
| 2026-05-04 21:16 | 46.37764 | -2.73165 | 35963 ft | 443 kts | 221° |
| 2026-05-04 21:16 | 46.33235 | -2.79152 | 35967 ft | 443 kts | 221° |
| 2026-05-04 21:17 | 46.28680 | -2.85158 | 35968 ft | 443 kts | 221° |
| 2026-05-04 21:17 | 46.24095 | -2.91060 | 35975 ft | 443 kts | 219° |
| 2026-05-04 21:18 | 46.19389 | -2.96796 | 35973 ft | 444 kts | 219° |
| 2026-05-04 21:18 | 46.14690 | -3.02512 | 35972 ft | 444 kts | 219° |
| 2026-05-04 21:19 | 46.09968 | -3.08263 | 35978 ft | 443 kts | 219° |
| 2026-05-04 21:19 | 46.05278 | -3.13977 | 35974 ft | 443 kts | 219° |
| 2026-05-04 21:20 | 46.00596 | -3.19670 | 35979 ft | 443 kts | 219° |
| 2026-05-04 21:20 | 45.95878 | -3.25394 | 35980 ft | 443 kts | 219° |
| 2026-05-04 21:21 | 45.91193 | -3.31064 | 35978 ft | 443 kts | 219° |
| 2026-05-04 21:21 | 45.86472 | -3.36762 | 35984 ft | 444 kts | 219° |
| 2026-05-04 21:22 | 45.81746 | -3.42452 | 35983 ft | 444 kts | 219° |
| 2026-05-04 21:22 | 45.76998 | -3.48156 | 35987 ft | 444 kts | 219° |
| 2026-05-04 21:23 | 45.72271 | -3.53819 | 35982 ft | 444 kts | 219° |
| 2026-05-04 21:23 | 45.67560 | -3.59453 | 35986 ft | 444 kts | 219° |
| 2026-05-04 21:24 | 45.62839 | -3.65086 | 35989 ft | 444 kts | 219° |
| 2026-05-04 21:24 | 45.58078 | -3.70754 | 35987 ft | 444 kts | 219° |
| 2026-05-04 21:25 | 45.53363 | -3.76353 | 35985 ft | 444 kts | 219° |
| 2026-05-04 21:25 | 45.48624 | -3.81968 | 35984 ft | 445 kts | 219° |
| 2026-05-04 21:26 | 45.43856 | -3.87604 | 35992 ft | 445 kts | 219° |
| 2026-05-04 21:26 | 45.39114 | -3.93196 | 35988 ft | 445 kts | 219° |
| 2026-05-04 21:27 | 45.34346 | -3.98805 | 35993 ft | 444 kts | 219° |
| 2026-05-04 21:27 | 45.29586 | -4.04374 | 35994 ft | 445 kts | 219° |
| 2026-05-04 21:28 | 45.24815 | -4.09922 | 36000 ft | 444 kts | 219° |
| 2026-05-04 21:28 | 45.20025 | -4.15479 | 35992 ft | 444 kts | 219° |
| 2026-05-04 21:29 | 45.15233 | -4.21025 | 35999 ft | 445 kts | 219° |
| 2026-05-04 21:29 | 45.10465 | -4.26533 | 36001 ft | 445 kts | 219° |
| 2026-05-04 21:30 | 45.05661 | -4.32070 | 35997 ft | 446 kts | 219° |
| 2026-05-04 21:30 | 45.00848 | -4.37603 | 35996 ft | 446 kts | 219° |
| 2026-05-04 21:31 | 44.93648 | -4.45864 | 35998 ft | 445 kts | 219° |
| 2026-05-04 21:32 | 44.88852 | -4.51351 | 36005 ft | 445 kts | 219° |
| 2026-05-04 21:32 | 44.84030 | -4.56854 | 36001 ft | 445 kts | 219° |
| 2026-05-04 21:33 | 44.79192 | -4.62362 | 36003 ft | 446 kts | 219° |
| 2026-05-04 21:33 | 44.74374 | -4.67837 | 36004 ft | 446 kts | 219° |
| 2026-05-04 21:34 | 44.69568 | -4.73284 | 36000 ft | 446 kts | 219° |
| 2026-05-04 21:34 | 44.64717 | -4.78770 | 36002 ft | 446 kts | 219° |
| 2026-05-04 21:35 | 44.59925 | -4.84176 | 35997 ft | 446 kts | 219° |
| 2026-05-04 21:35 | 44.55089 | -4.89620 | 36002 ft | 446 kts | 219° |
| 2026-05-04 21:36 | 44.50233 | -4.95016 | 36004 ft | 446 kts | 217° |
| 2026-05-04 21:36 | 44.45208 | -5.00075 | 36002 ft | 446 kts | 216° |
| 2026-05-04 21:37 | 44.40163 | -5.05128 | 36010 ft | 447 kts | 216° |
| 2026-05-04 21:37 | 44.35143 | -5.10140 | 36015 ft | 447 kts | 216° |
| 2026-05-04 21:38 | 44.30081 | -5.15182 | 36016 ft | 447 kts | 216° |
| 2026-05-04 21:38 | 44.25034 | -5.20198 | 36015 ft | 446 kts | 216° |
| 2026-05-04 21:39 | 44.19980 | -5.25211 | 36020 ft | 446 kts | 216° |
| 2026-05-04 21:39 | 44.14931 | -5.30207 | 36018 ft | 446 kts | 217° |
| 2026-05-04 21:40 | 44.09836 | -5.35241 | 36020 ft | 447 kts | 217° |
| 2026-05-04 21:40 | 44.04769 | -5.40234 | 36017 ft | 447 kts | 217° |
| 2026-05-04 21:41 | 43.99720 | -5.45200 | 36014 ft | 447 kts | 217° |
| 2026-05-04 21:41 | 43.94636 | -5.50187 | 36019 ft | 447 kts | 217° |
| 2026-05-04 21:42 | 43.89546 | -5.55171 | 36022 ft | 447 kts | 217° |
| 2026-05-04 21:42 | 43.84468 | -5.60131 | 36025 ft | 446 kts | 217° |
| 2026-05-04 21:43 | 43.79400 | -5.65071 | 36027 ft | 446 kts | 216° |
| 2026-05-04 21:43 | 43.74312 | -5.70021 | 36020 ft | 446 kts | 216° |
| 2026-05-04 21:44 | 43.69250 | -5.74934 | 36018 ft | 446 kts | 216° |
| 2026-05-04 21:44 | 43.64146 | -5.79878 | 36015 ft | 446 kts | 216° |
| 2026-05-04 21:45 | 43.59106 | -5.84750 | 36018 ft | 446 kts | 216° |
| 2026-05-04 21:45 | 43.54008 | -5.89665 | 36017 ft | 445 kts | 217° |
| 2026-05-04 21:46 | 43.48923 | -5.94559 | 36019 ft | 444 kts | 217° |
| 2026-05-04 21:46 | 43.43836 | -5.99449 | 36018 ft | 445 kts | 217° |
| 2026-05-04 21:47 | 43.38796 | -6.04327 | 36021 ft | 445 kts | 217° |
| 2026-05-04 21:47 | 43.33704 | -6.09247 | 36024 ft | 445 kts | 217° |
| 2026-05-04 21:48 | 43.28647 | -6.14120 | 36024 ft | 445 kts | 217° |
| 2026-05-04 21:48 | 43.23557 | -6.19010 | 36027 ft | 445 kts | 217° |
| 2026-05-04 21:49 | 43.18498 | -6.23863 | 36017 ft | 445 kts | 217° |
| 2026-05-04 21:49 | 43.13454 | -6.28690 | 36013 ft | 444 kts | 217° |
| 2026-05-04 21:50 | 43.08368 | -6.33549 | 36009 ft | 444 kts | 217° |
| 2026-05-04 21:50 | 43.03296 | -6.38386 | 36001 ft | 444 kts | 217° |
| 2026-05-04 21:51 | 42.98233 | -6.43200 | 35998 ft | 444 kts | 217° |
| 2026-05-04 21:51 | 42.93144 | -6.48031 | 35996 ft | 445 kts | 218° |
| 2026-05-04 21:52 | 42.88039 | -6.52868 | 36000 ft | 445 kts | 218° |
| 2026-05-04 21:52 | 42.82935 | -6.57693 | 35999 ft | 445 kts | 218° |
| 2026-05-04 21:53 | 42.77867 | -6.62475 | 36004 ft | 444 kts | 218° |
| 2026-05-04 21:53 | 42.72800 | -6.67244 | 36010 ft | 443 kts | 217° |
| 2026-05-04 21:54 | 42.67705 | -6.72032 | 36017 ft | 443 kts | 217° |
| 2026-05-04 21:54 | 42.62652 | -6.76773 | 36029 ft | 444 kts | 217° |
| 2026-05-04 21:55 | 42.57565 | -6.81534 | 36028 ft | 444 kts | 217° |
| 2026-05-04 21:55 | 42.52470 | -6.86291 | 36027 ft | 444 kts | 217° |
| 2026-05-04 21:56 | 42.47390 | -6.91024 | 36015 ft | 443 kts | 218° |
| 2026-05-04 21:56 | 42.44835 | -6.93400 | 35806 ft | 443 kts | 218° |
| 2026-05-04 21:56 | 42.42334 | -6.95723 | 35578 ft | 440 kts | 218° |
| 2026-05-04 21:56 | 42.39822 | -6.98053 | 35243 ft | 438 kts | 218° |
| 2026-05-04 21:57 | 42.37298 | -7.00392 | 34757 ft | 435 kts | 218° |
| 2026-05-04 21:57 | 42.34846 | -7.02690 | 34188 ft | 433 kts | 219° |
| 2026-05-04 21:57 | 42.32478 | -7.05158 | 33550 ft | 431 kts | 223° |
| 2026-05-04 21:57 | 42.30215 | -7.07837 | 32919 ft | 430 kts | 226° |
| 2026-05-04 21:58 | 42.28092 | -7.10692 | 32252 ft | 430 kts | 230° |
| 2026-05-04 21:58 | 42.26136 | -7.13670 | 31552 ft | 430 kts | 233° |
| 2026-05-04 21:58 | 42.24294 | -7.16856 | 30807 ft | 431 kts | 237° |
| 2026-05-04 21:58 | 42.22609 | -7.20180 | 30067 ft | 431 kts | 240° |
| 2026-05-04 21:59 | 42.21027 | -7.23594 | 29275 ft | 433 kts | 241° |
| 2026-05-04 21:59 | 42.19440 | -7.27034 | 28558 ft | 430 kts | 241° |
| 2026-05-04 21:59 | 42.17887 | -7.30398 | 27975 ft | 425 kts | 241° |
| 2026-05-04 21:59 | 42.16333 | -7.33762 | 27406 ft | 420 kts | 241° |
| 2026-05-04 22:00 | 42.14798 | -7.37078 | 26842 ft | 415 kts | 241° |
| 2026-05-04 22:00 | 42.13285 | -7.40345 | 26276 ft | 410 kts | 241° |
| 2026-05-04 22:00 | 42.11789 | -7.43569 | 25697 ft | 406 kts | 241° |
| 2026-05-04 22:00 | 42.10303 | -7.46771 | 25113 ft | 402 kts | 241° |
| 2026-05-04 22:01 | 42.08846 | -7.49906 | 24567 ft | 398 kts | 241° |
| 2026-05-04 22:01 | 42.07385 | -7.53043 | 23936 ft | 394 kts | 241° |
| 2026-05-04 22:01 | 42.05944 | -7.56138 | 23324 ft | 390 kts | 241° |
| 2026-05-04 22:01 | 42.04510 | -7.59217 | 22756 ft | 385 kts | 241° |
| 2026-05-04 22:02 | 42.03091 | -7.62261 | 22161 ft | 381 kts | 241° |
| 2026-05-04 22:02 | 42.01684 | -7.65269 | 21625 ft | 377 kts | 240° |
| 2026-05-04 22:02 | 42.00309 | -7.68204 | 21075 ft | 374 kts | 240° |
| 2026-05-04 22:02 | 41.98928 | -7.71153 | 20523 ft | 371 kts | 240° |
| 2026-05-04 22:03 | 41.97545 | -7.74105 | 19998 ft | 368 kts | 240° |
| 2026-05-04 22:03 | 41.96189 | -7.76997 | 19460 ft | 366 kts | 240° |
| 2026-05-04 22:03 | 41.94833 | -7.79888 | 18885 ft | 365 kts | 240° |
| 2026-05-04 22:03 | 41.93483 | -7.82764 | 18343 ft | 364 kts | 240° |
| 2026-05-04 22:04 | 41.92147 | -7.85605 | 17807 ft | 362 kts | 240° |
| 2026-05-04 22:04 | 41.90802 | -7.88466 | 17266 ft | 361 kts | 240° |
| 2026-05-04 22:04 | 41.89470 | -7.91291 | 16742 ft | 359 kts | 240° |
| 2026-05-04 22:04 | 41.88131 | -7.94129 | 16210 ft | 359 kts | 240° |
| 2026-05-04 22:05 | 41.86804 | -7.96939 | 15684 ft | 357 kts | 240° |
| 2026-05-04 22:05 | 41.85476 | -7.99744 | 15171 ft | 355 kts | 240° |
| 2026-05-04 22:05 | 41.84152 | -8.02537 | 14672 ft | 351 kts | 240° |
| 2026-05-04 22:05 | 41.82863 | -8.05256 | 14173 ft | 349 kts | 240° |
| 2026-05-04 22:06 | 41.81561 | -8.08021 | 13671 ft | 346 kts | 241° |
| 2026-05-04 22:06 | 41.80344 | -8.10783 | 13176 ft | 344 kts | 242° |
| 2026-05-04 22:06 | 41.79140 | -8.13534 | 12691 ft | 342 kts | 242° |
| 2026-05-04 22:06 | 41.77944 | -8.16264 | 12209 ft | 339 kts | 242° |
| 2026-05-04 22:07 | 41.76766 | -8.18955 | 11728 ft | 336 kts | 242° |
| 2026-05-04 22:07 | 41.75551 | -8.21721 | 11210 ft | 334 kts | 242° |
| 2026-05-04 22:07 | 41.74374 | -8.24409 | 10848 ft | 326 kts | 243° |
| 2026-05-04 22:07 | 41.73263 | -8.27033 | 10508 ft | 317 kts | 244° |
| 2026-05-04 22:08 | 41.72196 | -8.29576 | 10325 ft | 303 kts | 244° |
| 2026-05-04 22:08 | 41.71191 | -8.31971 | 10210 ft | 288 kts | 244° |
| 2026-05-04 22:08 | 41.70233 | -8.34244 | 10119 ft | 274 kts | 244° |
| 2026-05-04 22:08 | 41.69311 | -8.36426 | 10052 ft | 267 kts | 244° |
| 2026-05-04 22:09 | 41.68405 | -8.38573 | 9714 ft | 268 kts | 244° |
| 2026-05-04 22:09 | 41.67497 | -8.40726 | 9356 ft | 266 kts | 244° |
| 2026-05-04 22:09 | 41.66587 | -8.42881 | 9013 ft | 263 kts | 244° |
| 2026-05-04 22:09 | 41.65688 | -8.45001 | 8679 ft | 261 kts | 244° |
| 2026-05-04 22:10 | 41.64801 | -8.47096 | 8353 ft | 260 kts | 244° |
| 2026-05-04 22:10 | 41.63911 | -8.49196 | 8031 ft | 258 kts | 244° |
| 2026-05-04 22:10 | 41.63033 | -8.51273 | 7711 ft | 257 kts | 244° |
| 2026-05-04 22:10 | 41.62144 | -8.53371 | 7385 ft | 256 kts | 244° |
| 2026-05-04 22:11 | 41.61253 | -8.55464 | 7116 ft | 253 kts | 244° |
| 2026-05-04 22:11 | 41.60411 | -8.57433 | 7078 ft | 239 kts | 244° |
| 2026-05-04 22:11 | 41.59592 | -8.59288 | 7063 ft | 227 kts | 242° |
| 2026-05-04 22:11 | 41.58730 | -8.61082 | 6679 ft | 232 kts | 241° |
| 2026-05-04 22:12 | 41.57842 | -8.62920 | 6286 ft | 235 kts | 240° |
| 2026-05-04 22:12 | 41.56963 | -8.64726 | 5925 ft | 236 kts | 240° |
| 2026-05-04 22:12 | 41.56064 | -8.66575 | 5566 ft | 236 kts | 239° |
| 2026-05-04 22:12 | 41.55177 | -8.68399 | 5220 ft | 236 kts | 239° |
| 2026-05-04 22:13 | 41.54283 | -8.70233 | 4875 ft | 236 kts | 239° |
| 2026-05-04 22:13 | 41.53395 | -8.72060 | 4533 ft | 236 kts | 239° |
| 2026-05-04 22:13 | 41.52425 | -8.73817 | 4168 ft | 238 kts | 223° |
| 2026-05-04 22:13 | 41.50936 | -8.74806 | 3836 ft | 240 kts | 189° |
| 2026-05-04 22:14 | 41.49312 | -8.74738 | 3696 ft | 232 kts | 171° |
| 2026-05-04 22:14 | 41.47763 | -8.74289 | 3555 ft | 223 kts | 167° |
| 2026-05-04 22:14 | 41.46287 | -8.73807 | 3412 ft | 214 kts | 167° |
| 2026-05-04 22:14 | 41.44849 | -8.73368 | 3326 ft | 203 kts | 168° |
| 2026-05-04 22:15 | 41.43528 | -8.72998 | 3267 ft | 190 kts | 169° |
| 2026-05-04 22:15 | 41.42247 | -8.72659 | 3034 ft | 184 kts | 169° |
| 2026-05-04 22:15 | 41.41019 | -8.72340 | 2801 ft | 173 kts | 169° |
| 2026-05-04 22:15 | 41.39889 | -8.72049 | 2587 ft | 162 kts | 169° |
| 2026-05-04 22:16 | 41.38793 | -8.71767 | 2422 ft | 159 kts | 169° |
| 2026-05-04 22:16 | 41.37708 | -8.71489 | 2240 ft | 158 kts | 169° |
| 2026-05-04 22:16 | 41.36653 | -8.71218 | 2053 ft | 148 kts | 169° |
| 2026-05-04 22:16 | 41.35656 | -8.70961 | 1874 ft | 144 kts | 169° |
| 2026-05-04 22:17 | 41.34668 | -8.70706 | 1703 ft | 143 kts | 169° |
| 2026-05-04 22:17 | 41.33693 | -8.70451 | 1534 ft | 143 kts | 169° |
| 2026-05-04 22:17 | 41.32709 | -8.70194 | 1359 ft | 142 kts | 169° |
| 2026-05-04 22:17 | 41.31740 | -8.69940 | 1186 ft | 141 kts | 170° |
| 2026-05-04 22:18 | 41.30783 | -8.69689 | 1012 ft | 141 kts | 169° |
| 2026-05-04 22:18 | 41.29811 | -8.69434 | 839 ft | 140 kts | 169° |
| 2026-05-04 22:18 | 41.28855 | -8.69184 | 669 ft | 139 kts | 169° |
| 2026-05-04 22:18 | 41.27901 | -8.68935 | 504 ft | 139 kts | 169° |
| 2026-05-04 22:19 | 41.26955 | -8.68688 | 336 ft | 138 kts | 168° |
| 2026-05-04 22:19 | 41.26007 | -8.68438 | 171 ft | 137 kts | 169° |
| 2026-05-04 22:19 | 41.25212 | -8.68226 | 174 ft | 94 kts | 171° |
| 2026-05-04 22:19 | 41.24684 | -8.68090 | 197 ft | 69 kts | 167° |
| 2026-05-04 22:20 | 41.24147 | -8.67967 | 207 ft | 62 kts | 165° |
| 2026-05-04 22:20 | 41.23906 | -8.67856 | 212 ft | 26 kts | 118° |
| 2026-05-04 22:20 | 41.23907 | -8.67722 | 222 ft | 9 kts | 85° |
| 2026-05-04 22:20 | 41.23914 | -8.67680 | 225 ft | 2 kts | 71° |
| 2026-05-04 22:21 | 41.23922 | -8.67633 | 225 ft | 7 kts | 82° |
| 2026-05-04 22:21 | 41.23922 | -8.67547 | 225 ft | 11 kts | 102° |
| 2026-05-04 22:21 | 41.23850 | -8.67484 | 225 ft | 15 kts | 171° |
| 2026-05-04 22:21 | 41.23749 | -8.67447 | 225 ft | 15 kts | 144° |
| 2026-05-04 22:22 | 41.23679 | -8.67351 | 225 ft | 13 kts | 159° |
| 2026-05-04 22:22 | 41.23631 | -8.67312 | 225 ft | 5 kts | 89° |
| 2026-05-04 22:22 | 41.23637 | -8.67252 | 225 ft | 4 kts | 79° |
| 2026-05-04 22:22 | 41.23638 | -8.67243 | 225 ft | 0 kts | 80° |